Cardross, United Kingdom
Current Conditions -  °F | °C
As of 2:20 PM on Saturday 20 Dec 2014 (Local Time) from EGPF Reporting Station
Few Clouds Few Clouds  
Wind Chill: 39°   Ceiling: Unl
Heat Index: 43°   Visibility: 6mi
Dew Point: 37°   Wind: 6mph
Humidity: 81%   Direction: 260°W
Pressure: 30.15"   Gusts: NA
Location:  55.97°N, 4.63°W
Report Text: EGPF 201420Z AUTO 26005KT 9999 FEW031/// //////TCU 06/03 Q1021
Loading
Personal Weather Stations






























Interactive Weather Map New forecast layout! Learn more

10-Day Weather Forecast

Advertisements
Track Severe Weather on mobile